Aviation Digital Data Service (ADDS)

Output produced by METARs form (1349 UTC 30 September 2014)
found at http://www.aviationweather.gov/adds/metars/
 
KDEC 301328Z 3013/0112 05010KT 3SM BR OVC004 
     TEMPO 3013/3015 6SM BR OVC008 
     FM301500 05008KT 4SM BR OVC006 
     FM301700 05009KT P6SM BKN020 
     FM301900 07006KT P6SM SCT020